Time;durP1;ratioP1;P1;durP2;ratioP2;P2;SDS_P1;SDS_P2;PMS_P1;PMS_P2;Temp;Humidity;BMP_temperature;BMP_pressure;BME280_temperature;BME280_humidity;BME280_pressure;Samples;Min_cycle;Max_cycle;Signal;HPM_P1;HPM_P2
2023/08/25 00:02:17;;;;;;;6.45;1.90;;;;;;;20.12;100.00;100015.47;5025713;28;20065;-73
2023/08/25 00:05:04;;;;;;;7.63;2.22;;;;;;;20.16;100.00;100019.16;5023567;28;20041;-73
2023/08/25 00:07:49;;;;;;;3.88;1.92;;;;;;;20.20;100.00;100019.25;5010063;28;20030;-73
2023/08/25 00:10:35;;;;;;;4.57;1.75;;;;;;;20.20;100.00;100020.06;5010765;28;20033;-73
2023/08/25 00:13:21;;;;;;;6.05;2.00;;;;;;;20.20;100.00;100020.06;5023845;28;20075;-73
2023/08/25 00:16:07;;;;;;;5.22;1.75;;;;;;;20.20;100.00;100016.44;5010808;28;20030;-73
2023/08/25 00:18:52;;;;;;;6.03;1.95;;;;;;;20.16;100.00;100029.63;5024678;28;20049;-73
2023/08/25 00:21:38;;;;;;;5.68;1.80;;;;;;;20.16;100.00;100015.53;5010682;28;20037;-73
2023/08/25 00:24:24;;;;;;;5.68;2.00;;;;;;;20.14;100.00;100017.91;5039877;28;20061;-73
2023/08/25 00:27:10;;;;;;;5.32;1.77;;;;;;;20.08;100.00;100023.00;5043998;28;20029;-73
2023/08/25 00:29:55;;;;;;;4.68;1.60;;;;;;;20.07;100.00;100025.03;5029966;28;20052;-73
2023/08/25 00:32:41;;;;;;;8.02;1.98;;;;;;;20.05;100.00;100018.13;5057685;28;20040;-73
2023/08/25 00:35:27;;;;;;;7.10;2.40;;;;;;;19.99;100.00;100026.06;5043759;28;20382;-73
2023/08/25 00:38:13;;;;;;;5.63;2.20;;;;;;;19.99;100.00;100022.41;5029146;28;20032;-73
2023/08/25 00:40:58;;;;;;;6.85;2.38;;;;;;;19.94;100.00;100015.06;5030842;28;20482;-73
2023/08/25 00:43:44;;;;;;;7.05;1.95;;;;;;;19.91;100.00;100020.63;5035355;28;20041;-73
2023/08/25 00:46:30;;;;;;;7.68;2.35;;;;;;;19.84;100.00;100019.28;5024323;28;20056;-73
2023/08/25 00:49:16;;;;;;;6.63;2.05;;;;;;;19.86;100.00;100014.13;5023277;28;20452;-73
2023/08/25 00:52:02;;;;;;;8.05;2.42;;;;;;;19.87;100.00;100017.75;5020893;28;20105;-73
2023/08/25 00:54:49;;;;;;;9.02;2.47;;;;;;;19.80;100.00;100021.19;5009846;28;20037;-73
2023/08/25 00:57:35;;;;;;;5.80;2.08;;;;;;;19.78;100.00;100019.94;5023271;28;20458;-73
2023/08/25 01:00:21;;;;;;;8.40;1.80;;;;;;;19.81;100.00;100011.59;5010045;28;20029;-73
2023/08/25 01:03:07;;;;;;;7.65;2.20;;;;;;;19.86;100.00;100014.13;5023542;28;20417;-73
2023/08/25 01:05:53;;;;;;;4.88;1.67;;;;;;;19.88;100.00;100018.56;5035623;28;20056;-73
2023/08/25 01:08:39;;;;;;;7.32;2.10;;;;;;;19.85;100.00;100009.66;5009575;28;20497;-73
2023/08/25 01:11:46;;;;;;;7.28;2.28;;;;;;;19.80;100.00;100012.75;5023914;28;20136;-73
2023/08/25 01:15:07;;;;;;;7.85;2.10;;;;;;;19.80;100.00;100009.94;5036021;28;20033;-73
2023/08/25 01:17:57;;;;;;;4.38;2.13;;;;;;;19.78;100.00;100009.50;5036439;28;20079;-73
2023/08/25 01:20:46;;;;;;;5.60;2.20;;;;;;;19.71;100.00;100005.72;5024391;28;20029;-73
2023/08/25 01:23:35;;;;;;;6.15;2.33;;;;;;;19.77;100.00;100007.03;5023786;28;20037;-73
2023/08/25 01:26:21;;;;;;;6.28;2.00;;;;;;;19.76;100.00;100002.59;5023981;28;20029;-73
2023/08/25 01:29:07;;;;;;;6.60;2.00;;;;;;;19.77;100.00;99998.59;5023717;28;20052;-73
2023/08/25 01:31:52;;;;;;;6.15;2.10;;;;;;;19.75;100.00;99998.97;5035479;28;20037;-73
2023/08/25 01:34:38;;;;;;;6.57;2.00;;;;;;;19.77;100.00;99990.94;5009676;28;20095;-73
2023/08/25 01:37:28;;;;;;;6.53;1.85;;;;;;;19.76;100.00;99989.34;5023562;28;20515;-73
2023/08/25 01:40:17;;;;;;;4.57;1.80;;;;;;;19.70;100.00;99988.00;5036735;28;20041;-73
2023/08/25 01:43:03;;;;;;;7.57;2.20;;;;;;;19.71;100.00;99991.63;5021986;28;20030;-73
2023/08/25 01:45:49;;;;;;;6.15;2.03;;;;;;;19.68;100.00;99990.34;5023681;28;20029;-73
2023/08/25 01:48:34;;;;;;;5.25;1.60;;;;;;;19.72;100.00;99993.25;5023625;28;20033;-73
2023/08/25 01:51:20;;;;;;;6.18;1.90;;;;;;;19.68;100.00;99993.19;5023822;28;20065;-73
2023/08/25 01:54:06;;;;;;;5.60;2.40;;;;;;;19.62;100.00;99991.81;5023553;28;20041;-73
2023/08/25 01:56:52;;;;;;;8.07;2.00;;;;;;;19.59;100.00;99984.09;5036029;28;20448;-73
2023/08/25 01:59:38;;;;;;;5.07;1.90;;;;;;;19.60;100.00;99977.25;5022304;28;20046;-73
2023/08/25 02:02:24;;;;;;;6.38;2.17;;;;;;;19.53;100.00;99986.38;5036153;28;20065;-73
2023/08/25 02:05:09;;;;;;;9.05;2.20;;;;;;;19.45;100.00;99972.50;5022325;28;20174;-73
2023/08/25 02:07:55;;;;;;;6.30;2.30;;;;;;;19.47;100.00;99978.56;5008859;28;20037;-73
2023/08/25 02:10:41;;;;;;;10.68;2.92;;;;;;;19.39;100.00;99969.97;5009238;28;20033;-73
2023/08/25 02:13:27;;;;;;;5.88;2.38;;;;;;;19.46;100.00;99962.88;5023879;28;20041;-73
2023/08/25 02:16:12;;;;;;;10.32;2.30;;;;;;;19.39;100.00;99974.78;5021727;28;20033;-73
2023/08/25 02:18:58;;;;;;;7.90;2.03;;;;;;;19.43;100.00;99976.47;5034148;28;20052;-73
2023/08/25 02:21:45;;;;;;;11.32;2.67;;;;;;;19.39;100.00;99974.78;5054431;28;20045;-73
2023/08/25 02:24:31;;;;;;;8.23;2.60;;;;;;;19.38;100.00;99968.31;5028767;28;20404;-73
2023/08/25 02:27:16;;;;;;;10.75;2.22;;;;;;;19.41;100.00;99972.41;5028660;28;20044;-73
2023/08/25 02:30:03;;;;;;;9.50;2.15;;;;;;;19.42;100.00;99971.25;5055131;28;20076;-73
2023/08/25 02:32:49;;;;;;;8.93;2.35;;;;;;;19.40;100.00;99982.03;5029254;28;20099;-73
2023/08/25 02:35:35;;;;;;;12.18;2.63;;;;;;;19.37;100.00;99977.97;5054318;28;20069;-73
2023/08/25 02:38:20;;;;;;;6.88;2.40;;;;;;;19.37;100.00;99972.31;5044948;28;20067;-73
2023/08/25 02:41:07;;;;;;;12.52;2.60;;;;;;;19.32;100.00;99966.97;5039744;28;20073;-73
2023/08/25 02:43:53;;;;;;;9.18;2.60;;;;;;;19.37;100.00;99969.50;5036496;28;20056;-73
2023/08/25 02:46:40;;;;;;;11.50;2.78;;;;;;;19.36;100.00;99969.88;5012249;28;20405;-73
2023/08/25 02:49:25;;;;;;;10.88;2.70;;;;;;;19.35;100.00;99966.25;5012960;28;20087;-73
2023/08/25 02:52:11;;;;;;;7.90;2.83;;;;;;;19.32;100.00;99964.16;5026065;28;20029;-73
2023/08/25 02:54:57;;;;;;;6.53;2.25;;;;;;;19.37;100.00;99974.34;5038828;28;20030;-73
2023/08/25 02:57:43;;;;;;;6.45;2.20;;;;;;;19.38;100.00;99971.13;5012500;28;20083;-73
2023/08/25 03:00:28;;;;;;;9.65;2.65;;;;;;;19.35;100.00;99969.06;5037839;28;20065;-73
2023/08/25 03:03:14;;;;;;;8.30;2.50;;;;;;;19.37;100.00;99977.16;5012146;28;20053;-74
2023/08/25 03:06:00;;;;;;;16.42;3.63;;;;;;;19.34;100.00;99975.88;5011686;28;20038;-73
2023/08/25 03:08:46;;;;;;;11.18;2.38;;;;;;;19.28;100.00;99974.53;5024802;28;20038;-73
2023/08/25 03:11:32;;;;;;;5.10;1.88;;;;;;;19.28;100.00;99974.53;5011930;28;20037;-73
2023/08/25 03:14:18;;;;;;;9.65;2.53;;;;;;;19.20;100.00;99978.34;5038055;28;20132;-73
2023/08/25 03:17:04;;;;;;;8.13;2.60;;;;;;;19.22;100.00;99972.34;5025311;28;20040;-73
2023/08/25 03:19:49;;;;;;;9.20;2.35;;;;;;;19.26;100.00;99974.06;5025358;28;20101;-73
2023/08/25 03:22:35;;;;;;;9.20;2.50;;;;;;;19.24;100.00;99979.25;5010942;28;20033;-73
2023/08/25 03:25:21;;;;;;;11.18;2.78;;;;;;;19.18;100.00;99984.34;5038064;28;20025;-73
2023/08/25 03:28:07;;;;;;;8.88;3.13;;;;;;;19.21;100.00;99991.25;5024212;28;20033;-73
2023/08/25 03:30:53;;;;;;;7.32;2.45;;;;;;;19.19;100.00;99982.34;5024993;28;20102;-73
2023/08/25 03:33:39;;;;;;;8.15;3.30;;;;;;;19.10;100.00;99990.16;5037115;28;20101;-73
2023/08/25 03:36:24;;;;;;;7.15;2.65;;;;;;;19.13;100.00;99995.06;5025122;28;20409;-73
2023/08/25 03:39:10;;;;;;;8.88;2.65;;;;;;;19.14;100.00;99994.72;5025041;28;20033;-73
2023/08/25 03:41:56;;;;;;;7.20;3.03;;;;;;;19.15;100.00;99987.88;5024838;28;20133;-73
2023/08/25 03:44:42;;;;;;;7.30;2.17;;;;;;;19.12;100.00;99993.44;5011374;28;20033;-73
2023/08/25 03:47:28;;;;;;;8.40;2.47;;;;;;;19.13;100.00;99998.69;5037743;28;20029;-73
2023/08/25 03:50:14;;;;;;;6.75;2.45;;;;;;;19.08;100.00;99995.34;5037063;28;20089;-73
2023/08/25 03:52:59;;;;;;;7.63;2.53;;;;;;;19.00;100.00;100008.44;5010987;28;20497;-73
2023/08/25 03:55:45;;;;;;;7.22;2.08;;;;;;;18.97;100.00;99998.72;5023786;28;20039;-73
2023/08/25 03:58:31;;;;;;;7.70;2.05;;;;;;;18.97;100.00;100003.50;5024780;28;20397;-73
2023/08/25 04:01:17;;;;;;;9.50;2.50;;;;;;;18.89;100.00;100008.16;5024485;28;20493;-73
2023/08/25 04:04:03;;;;;;;8.32;2.33;;;;;;;18.87;100.00;100010.50;5024649;28;20042;-73
2023/08/25 04:06:48;;;;;;;8.85;2.53;;;;;;;18.88;100.00;100003.69;5010498;28;20458;-73
2023/08/25 04:09:35;;;;;;;8.23;2.70;;;;;;;18.81;100.00;100006.31;5022177;28;20037;-73
2023/08/25 04:12:20;;;;;;;6.57;1.88;;;;;;;18.81;100.00;99995.06;5018562;28;20042;-73
2023/08/25 04:15:07;;;;;;;6.00;2.05;;;;;;;18.74;100.00;99994.88;5018499;28;20520;-73
2023/08/25 04:17:52;;;;;;;8.75;2.40;;;;;;;18.77;100.00;100005.41;5021708;28;20046;-73
2023/08/25 04:20:38;;;;;;;9.82;2.65;;;;;;;18.77;100.00;100010.22;5017059;28;20061;-73
2023/08/25 04:23:28;;;;;;;9.15;2.10;;;;;;;18.70;100.00;100005.19;5027546;28;20044;-73
2023/08/25 04:26:14;;;;;;;10.60;2.05;;;;;;;18.69;100.00;100011.97;5038393;28;20120;-73
2023/08/25 04:29:00;;;;;;;7.78;2.10;;;;;;;18.67;100.00;100005.94;5009780;28;20053;-73
2023/08/25 04:31:45;;;;;;;8.35;1.95;;;;;;;18.67;100.00;100011.56;5023698;28;20482;-73
2023/08/25 04:34:31;;;;;;;4.82;1.65;;;;;;;18.64;100.00;100013.09;5024098;28;20457;-73
2023/08/25 04:37:17;;;;;;;4.97;1.45;;;;;;;18.59;100.00;100018.16;5023821;28;20068;-73
2023/08/25 04:40:03;;;;;;;8.57;2.05;;;;;;;18.60;100.00;100012.16;5037128;28;20090;-73
2023/08/25 04:42:49;;;;;;;9.27;1.75;;;;;;;18.61;100.00;100018.59;5014993;28;20042;-73
2023/08/25 04:45:34;;;;;;;6.45;1.70;;;;;;;18.60;100.00;100022.59;5034658;28;20045;-73
2023/08/25 04:48:22;;;;;;;7.47;1.58;;;;;;;18.59;100.00;100023.78;5036070;28;20033;-73
2023/08/25 04:51:08;;;;;;;6.47;1.55;;;;;;;18.62;100.00;100023.06;5010543;28;20089;-73
2023/08/25 04:53:54;;;;;;;8.70;1.85;;;;;;;18.59;100.00;100020.97;5035982;28;20033;-73
2023/08/25 04:56:39;;;;;;;5.93;1.70;;;;;;;18.59;100.00;100016.16;5005208;28;20041;-73
2023/08/25 04:59:25;;;;;;;6.75;1.60;;;;;;;18.55;100.00;100026.47;5023240;28;20506;-73
2023/08/25 05:02:11;;;;;;;9.27;1.70;;;;;;;18.52;100.00;100036.44;5038002;28;20045;-73
2023/08/25 05:04:58;;;;;;;10.07;2.10;;;;;;;18.47;100.00;100028.28;5007455;28;20040;-73
2023/08/25 05:07:45;;;;;;;5.90;1.80;;;;;;;18.45;100.00;100027.81;5035270;28;20040;-73
2023/08/25 05:10:31;;;;;;;6.95;1.60;;;;;;;18.51;100.00;100034.81;5002981;28;20061;-73
2023/08/25 05:13:16;;;;;;;10.77;2.35;;;;;;;18.51;100.00;100032.00;5022826;28;20033;-73
2023/08/25 05:16:02;;;;;;;8.18;1.75;;;;;;;18.40;100.00;100036.50;5009282;28;20041;-73
2023/08/25 05:18:48;;;;;;;7.90;2.08;;;;;;;18.38;100.00;100029.63;5022262;28;20103;-73
2023/08/25 05:21:34;;;;;;;6.18;1.73;;;;;;;18.38;100.00;100038.84;5009332;28;20045;-73
2023/08/25 05:24:25;;;;;;;8.00;1.80;;;;;;;18.37;100.00;100036.44;5022797;28;20041;-73
2023/08/25 05:27:11;;;;;;;9.13;1.85;;;;;;;18.26;100.00;100042.53;5023259;28;20040;-73
2023/08/25 05:29:57;;;;;;;6.45;1.77;;;;;;;18.33;100.00;100043.91;5036809;28;20056;-73
2023/08/25 05:32:42;;;;;;;8.32;1.58;;;;;;;18.37;100.00;100048.47;5017749;28;20088;-73
2023/08/25 05:35:28;;;;;;;6.70;2.03;;;;;;;18.35;100.00;100055.63;5031142;28;20605;-73
2023/08/25 05:38:14;;;;;;;8.40;1.90;;;;;;;18.30;100.00;100056.69;5003399;28;20041;-73
2023/08/25 05:41:00;;;;;;;8.27;2.05;;;;;;;18.26;100.00;100053.78;5025336;28;20116;-73
2023/08/25 05:43:45;;;;;;;8.68;1.67;;;;;;;18.22;100.00;100057.66;5006712;28;20037;-73
2023/08/25 05:46:31;;;;;;;10.35;2.40;;;;;;;18.15;100.00;100054.66;5036717;28;20425;-73
2023/08/25 05:49:17;;;;;;;8.27;1.83;;;;;;;18.12;100.00;100052.56;5023060;28;20029;-73
2023/08/25 05:52:03;;;;;;;8.90;1.85;;;;;;;18.11;100.00;100067.75;5020300;28;20033;-73
2023/08/25 05:54:49;;;;;;;6.75;1.92;;;;;;;18.13;100.00;100062.63;5021301;28;20041;-73
2023/08/25 05:57:35;;;;;;;7.28;2.00;;;;;;;18.12;100.00;100069.41;5023004;28;20038;-73
2023/08/25 06:00:21;;;;;;;7.10;1.80;;;;;;;18.12;100.00;100075.84;5022053;28;20037;-73
2023/08/25 06:03:08;;;;;;;10.32;2.00;;;;;;;18.14;100.00;100084.75;5022942;28;20045;-73
2023/08/25 06:05:53;;;;;;;6.63;1.92;;;;;;;18.14;100.00;100075.50;5003304;28;20030;-73
2023/08/25 06:08:40;;;;;;;7.25;2.10;;;;;;;18.16;100.00;100075.94;5010683;28;20040;-73
2023/08/25 06:11:26;;;;;;;7.78;2.00;;;;;;;18.15;100.00;100080.75;4995680;28;20026;-73
2023/08/25 06:14:12;;;;;;;12.02;1.80;;;;;;;18.17;100.00;100089.66;5026760;28;20030;-73
2023/08/25 06:17:01;;;;;;;8.02;1.83;;;;;;;18.21;100.00;100084.13;5017558;28;20038;-73
2023/08/25 06:19:47;;;;;;;7.28;2.25;;;;;;;18.25;100.00;100096.31;5007845;28;20584;-73
2023/08/25 06:22:33;;;;;;;7.35;2.03;;;;;;;18.30;100.00;100091.28;5040034;28;20038;-73
2023/08/25 06:25:18;;;;;;;5.70;1.98;;;;;;;18.33;100.00;100100.97;5012516;28;20029;-73
2023/08/25 06:28:05;;;;;;;6.65;2.13;;;;;;;18.34;100.00;100088.56;5039127;28;20072;-73
2023/08/25 06:30:50;;;;;;;9.65;2.10;;;;;;;18.33;100.00;100100.13;5026300;28;20038;-73
2023/08/25 06:33:38;;;;;;;7.85;1.88;;;;;;;18.33;100.00;100094.53;5012664;28;20203;-73
2023/08/25 06:36:24;;;;;;;4.65;1.60;;;;;;;18.39;100.00;100095.94;5025216;28;20041;-73
2023/08/25 06:39:11;;;;;;;9.00;1.75;;;;;;;18.37;100.00;100099.09;5026299;28;20060;-73
2023/08/25 06:41:56;;;;;;;5.38;1.67;;;;;;;18.31;100.00;100089.28;5013425;28;20049;-73
2023/08/25 06:44:42;;;;;;;7.90;1.63;;;;;;;18.36;100.00;100097.47;5038692;28;20061;-73
2023/08/25 06:47:28;;;;;;;8.45;1.63;;;;;;;18.35;100.00;100098.59;5018893;28;20037;-73
2023/08/25 06:50:14;;;;;;;4.25;1.50;;;;;;;18.37;100.00;100098.28;5022063;28;20486;-73
2023/08/25 06:53:00;;;;;;;7.20;1.55;;;;;;;18.45;100.00;100088.88;5025743;28;20478;-73
2023/08/25 06:55:45;;;;;;;6.97;1.55;;;;;;;18.54;100.00;100087.53;5019555;28;20044;-73
2023/08/25 06:58:31;;;;;;;7.05;1.65;;;;;;;18.64;100.00;100086.22;5022090;28;20040;-73
2023/08/25 07:01:18;;;;;;;6.85;1.77;;;;;;;18.73;100.00;100083.22;5039865;28;20030;-73
2023/08/25 07:04:04;;;;;;;6.78;1.85;;;;;;;18.87;100.00;100083.66;5038538;28;20086;-73
2023/08/25 07:06:49;;;;;;;7.60;1.65;;;;;;;19.01;100.00;100082.41;5011798;28;20059;-73
2023/08/25 07:09:35;;;;;;;6.60;1.33;;;;;;;19.18;100.00;100084.84;5036341;28;20116;-73
2023/08/25 07:12:21;;;;;;;8.75;1.40;;;;;;;19.39;100.00;100085.41;5004298;28;20030;-73
2023/08/25 07:15:10;;;;;;;5.72;1.70;;;;;;;19.57;100.00;100096.28;5025575;28;20041;-73
2023/08/25 07:17:56;;;;;;;5.03;1.23;;;;;;;19.76;100.00;100095.56;5025534;28;20056;-73
2023/08/25 07:20:41;;;;;;;7.30;1.58;;;;;;;19.92;100.00;100093.53;5025373;28;20451;-73
2023/08/25 07:23:27;;;;;;;5.07;1.48;;;;;;;20.07;100.00;100092.66;5024239;28;20044;-73
2023/08/25 07:26:13;;;;;;;8.68;1.58;;;;;;;20.21;100.00;100086.53;5037418;28;20075;-73
2023/08/25 07:28:59;;;;;;;3.58;1.30;;;;;;;20.31;100.00;100083.13;5037686;28;20052;-73
2023/08/25 07:31:45;;;;;;;5.38;1.30;;;;;;;20.49;100.00;100091.16;5025452;28;20048;-73
2023/08/25 07:34:31;;;;;;;6.70;1.13;;;;;;;20.62;100.00;100095.47;5008955;28;20041;-73
2023/08/25 07:37:16;;;;;;;5.93;1.75;;;;;;;20.75;100.00;100099.78;5030920;28;20038;-73
2023/08/25 07:40:05;;;;;;;6.40;1.35;;;;;;;20.90;100.00;100109.34;5004817;28;20117;-73
2023/08/25 07:42:51;;;;;;;5.40;1.27;;;;;;;21.10;100.00;100118.56;5008059;28;20116;-73
2023/08/25 07:45:36;;;;;;;4.50;1.30;;;;;;;21.26;100.00;100106.38;5022832;28;20039;-73
2023/08/25 07:48:23;;;;;;;5.32;1.08;;;;;;;21.38;100.00;100117.50;5024966;28;20592;-73
2023/08/25 07:51:08;;;;;;;6.90;1.30;;;;;;;21.50;100.00;100113.66;5024889;28;20102;-73
2023/08/25 07:53:54;;;;;;;5.47;1.10;;;;;;;21.61;100.00;100115.44;5009589;28;20037;-73
2023/08/25 07:56:40;;;;;;;4.90;1.10;;;;;;;21.59;100.00;100117.88;5024212;28;20548;-73
2023/08/25 07:59:26;;;;;;;6.60;1.30;;;;;;;21.63;100.00;100113.06;5004951;28;20033;-74
2023/08/25 08:02:12;;;;;;;7.70;1.80;;;;;;;21.64;100.00;100114.69;5025632;28;20076;-74
2023/08/25 08:04:58;;;;;;;5.65;1.02;;;;;;;21.61;100.00;100111.81;5024571;28;20524;-73
2023/08/25 08:07:45;;;;;;;2.85;1.20;;;;;;;21.61;100.00;100118.28;5010266;28;20037;-73
2023/08/25 08:10:31;;;;;;;5.07;1.10;;;;;;;21.53;100.00;100119.34;5010573;28;20033;-73
2023/08/25 08:13:17;;;;;;;4.85;0.90;;;;;;;21.50;100.00;100119.31;5024408;28;20126;-73
2023/08/25 08:16:03;;;;;;;6.10;1.10;;;;;;;21.49;100.00;100117.69;5006917;28;20049;-73
2023/08/25 08:18:48;;;;;;;5.72;0.95;;;;;;;21.51;100.00;100104.00;5024433;28;20126;-73
2023/08/25 08:21:34;;;;;;;3.28;0.75;;;;;;;21.56;100.00;100107.31;5018024;28;20045;-73
2023/08/25 08:24:21;;;;;;;2.83;0.75;;;;;;;21.66;100.00;100113.53;5008307;28;20513;-73
2023/08/25 08:27:07;;;;;;;3.92;0.73;;;;;;;21.76;100.00;100115.72;5004796;28;20045;-73
2023/08/25 08:29:53;;;;;;;5.20;0.93;;;;;;;21.97;100.00;100112.38;5020425;28;20057;-73
2023/08/25 08:32:39;;;;;;;4.30;0.68;;;;;;;22.07;100.00;100106.88;5035239;28;20044;-74
2023/08/25 08:35:24;;;;;;;3.58;1.00;;;;;;;22.26;100.00;100122.13;5014293;28;20402;-73
2023/08/25 08:38:10;;;;;;;3.45;0.60;;;;;;;22.41;100.00;100121.13;5017200;28;20030;-73
2023/08/25 08:41:01;;;;;;;3.83;1.00;;;;;;;22.54;100.00;100118.88;5022733;28;20030;-74
2023/08/25 08:43:47;;;;;;;4.35;0.80;;;;;;;22.79;100.00;100122.00;5008562;28;20468;-73
2023/08/25 08:46:33;;;;;;;5.28;0.80;;;;;;;22.99;100.00;100111.34;5023832;28;20049;-73
2023/08/25 08:49:21;;;;;;;6.72;0.88;;;;;;;23.25;100.00;100121.69;5004454;28;20033;-73
2023/08/25 08:52:07;;;;;;;2.20;0.47;;;;;;;23.37;98.63;100115.78;5036319;28;20504;-74
2023/08/25 08:54:53;;;;;;;2.10;0.90;;;;;;;23.53;98.36;100121.16;5023696;28;20037;-74
2023/08/25 08:57:39;;;;;;;3.10;0.82;;;;;;;23.60;97.98;100120.41;5023670;28;20167;-74
2023/08/25 09:00:25;;;;;;;3.22;0.80;;;;;;;23.67;96.85;100131.78;5004011;28;20029;-74
2023/08/25 09:03:11;;;;;;;4.93;0.80;;;;;;;23.71;96.15;100132.69;5020824;28;20038;-74
2023/08/25 09:05:57;;;;;;;3.30;0.70;;;;;;;23.77;96.03;100139.63;5009588;28;20040;-73
2023/08/25 09:08:43;;;;;;;4.63;0.85;;;;;;;23.90;97.93;100144.97;5009482;28;20469;-74
2023/08/25 09:11:29;;;;;;;3.47;0.93;;;;;;;23.90;94.94;100139.28;5022706;28;20029;-73
2023/08/25 09:14:28;;;;;;;2.65;0.63;;;;;;;24.01;94.20;100148.69;5023571;28;20030;-73
2023/08/25 09:17:14;;;;;;;3.88;0.80;;;;;;;24.06;92.25;100154.81;5023574;28;20041;-74
2023/08/25 09:20:04;;;;;;;3.05;0.68;;;;;;;24.12;88.87;100160.13;5009859;28;20071;-73
2023/08/25 09:22:57;;;;;;;4.63;0.90;;;;;;;24.16;89.71;100156.09;5009012;28;20504;-74
2023/08/25 09:25:43;;;;;;;4.43;0.73;;;;;;;24.24;89.01;100162.66;5023942;28;20068;-74
2023/08/25 09:28:28;;;;;;;3.10;0.57;;;;;;;24.38;90.78;100165.56;5023367;28;20101;-74
2023/08/25 09:31:22;;;;;;;5.82;0.80;;;;;;;24.42;89.41;100163.53;5009044;28;20104;-74
2023/08/25 09:34:09;;;;;;;4.10;0.80;;;;;;;24.44;86.94;100166.84;5023292;28;20033;-74
2023/08/25 09:36:55;;;;;;;4.80;0.80;;;;;;;24.49;85.33;100162.81;5009414;28;20042;-74
2023/08/25 09:39:44;;;;;;;7.63;1.02;;;;;;;24.57;86.70;100167.28;5022574;28;20037;-74
2023/08/25 09:42:31;;;;;;;4.20;1.02;;;;;;;24.64;85.75;100167.34;5010490;28;20117;-74
2023/08/25 09:45:17;;;;;;;5.45;0.90;;;;;;;24.72;83.57;100173.88;5022169;28;20050;-74
2023/08/25 09:48:07;;;;;;;4.43;1.27;;;;;;;24.80;83.70;100186.91;5026688;28;20046;-74
2023/08/25 09:50:53;;;;;;;6.18;0.95;;;;;;;24.74;79.97;100182.81;5039447;28;20033;-73
2023/08/25 09:53:39;;;;;;;5.75;1.10;;;;;;;24.80;82.02;100186.09;5039506;28;20037;-74
2023/08/25 09:56:24;;;;;;;3.60;0.60;;;;;;;24.79;81.13;100188.09;5025958;28;20481;-73
2023/08/25 09:59:11;;;;;;;4.47;0.75;;;;;;;24.82;81.55;100180.81;5007944;28;20026;-73
2023/08/25 10:01:57;;;;;;;5.00;0.80;;;;;;;24.94;82.26;100180.47;5014107;28;20571;-73
2023/08/25 10:04:43;;;;;;;4.53;0.90;;;;;;;25.03;80.15;100175.22;5026893;28;20056;-74
2023/08/25 10:07:30;;;;;;;4.28;0.63;;;;;;;25.16;78.80;100187.88;5026577;28;20044;-74
2023/08/25 10:10:16;;;;;;;4.32;0.80;;;;;;;25.19;76.70;100181.38;5013371;28;20026;-73
2023/08/25 10:13:03;;;;;;;2.70;0.82;;;;;;;25.27;74.97;100181.38;5011445;28;20040;-74
2023/08/25 10:15:49;;;;;;;4.35;1.02;;;;;;;25.16;70.90;100187.88;5026809;28;20124;-73
2023/08/25 10:18:38;;;;;;;3.28;0.95;;;;;;;25.18;73.07;100190.28;5038945;28;20116;-74
2023/08/25 10:21:24;;;;;;;2.33;0.68;;;;;;;25.14;74.34;100187.44;5012306;28;20065;-73
2023/08/25 10:24:10;;;;;;;4.38;0.80;;;;;;;25.28;74.85;100188.72;5012348;28;20033;-74
2023/08/25 10:26:56;;;;;;;3.03;0.90;;;;;;;25.30;75.56;100189.13;5012840;28;20037;-74
2023/08/25 10:29:42;;;;;;;3.33;0.90;;;;;;;25.34;75.21;100189.94;5026316;28;20128;-74
2023/08/25 10:32:47;;;;;;;2.92;0.75;;;;;;;25.35;72.13;100186.72;5026523;28;20033;-74
2023/08/25 10:35:42;;;;;;;3.90;0.82;;;;;;;25.39;72.17;100189.53;5011341;28;20033;-74
2023/08/25 10:38:27;;;;;;;3.58;0.77;;;;;;;25.45;71.74;100182.25;5006628;28;20045;-74
2023/08/25 10:41:15;;;;;;;8.35;3.15;;;;;;;25.52;68.03;100192.81;5026937;28;20040;-74
2023/08/25 10:44:01;;;;;;;7.30;3.22;;;;;;;25.54;68.65;100191.19;5038232;28;20562;-73
2023/08/25 10:46:48;;;;;;;5.93;2.50;;;;;;;25.64;67.51;100189.59;5026271;28;20469;-73
2023/08/25 10:49:40;;;;;;;3.50;1.52;;;;;;;25.68;63.25;100183.91;5012353;28;20040;-73
2023/08/25 10:52:26;;;;;;;3.60;1.47;;;;;;;25.82;66.26;100189.59;5038533;28;20043;-73
2023/08/25 10:55:25;;;;;;;4.63;1.33;;;;;;;25.92;66.37;100194.50;5025941;28;20275;-74
2023/08/25 10:58:12;;;;;;;4.47;1.10;;;;;;;26.06;64.43;100199.38;5008513;28;20133;-74
2023/08/25 11:01:01;;;;;;;3.45;0.95;;;;;;;26.18;64.98;100192.44;5025985;28;20036;-74
2023/08/25 11:03:48;;;;;;;3.97;1.10;;;;;;;26.32;65.38;100183.88;5005776;28;20105;-74
2023/08/25 11:06:47;;;;;;;4.07;1.58;;;;;;;26.45;64.24;100187.94;5010013;28;20143;-74
2023/08/25 11:09:33;;;;;;;4.70;1.58;;;;;;;26.56;62.96;100185.09;5035954;28;20069;-74
2023/08/25 11:12:19;;;;;;;4.90;1.40;;;;;;;26.63;60.84;100189.94;5016373;28;20041;-74
2023/08/25 11:15:08;;;;;;;3.28;0.88;;;;;;;26.66;61.10;100186.25;5025756;28;20090;-74
2023/08/25 11:17:54;;;;;;;4.68;1.30;;;;;;;26.69;60.12;100179.75;5037541;28;20130;-74
2023/08/25 11:20:44;;;;;;;6.25;1.00;;;;;;;26.76;60.71;100182.56;5011417;28;20038;-74
2023/08/25 11:23:44;;;;;;;10.95;1.80;;;;;;;26.85;60.25;100185.78;5025349;28;20091;-74
2023/08/25 11:26:33;;;;;;;8.70;1.13;;;;;;;26.95;59.17;100198.38;5025575;28;20037;-74
2023/08/25 11:29:19;;;;;;;12.57;1.60;;;;;;;27.05;58.37;100199.53;5037220;28;20045;-74
2023/08/25 11:32:05;;;;;;;8.80;1.35;;;;;;;27.11;59.42;100201.56;5039081;28;20394;-74
2023/08/25 11:34:51;;;;;;;8.02;1.70;;;;;;;27.16;59.63;100208.88;5023926;28;20116;-74
2023/08/25 11:37:37;;;;;;;6.57;1.25;;;;;;;27.17;60.68;100211.31;5024850;28;20042;-74
2023/08/25 11:40:22;;;;;;;8.43;1.20;;;;;;;27.19;60.99;100216.59;5025080;28;20482;-74
2023/08/25 11:43:08;;;;;;;10.77;1.55;;;;;;;27.17;58.89;100210.53;5011400;28;20060;-74
2023/08/25 11:45:54;;;;;;;8.38;1.40;;;;;;;27.14;57.74;100212.13;5011392;28;20037;-74
2023/08/25 11:48:40;;;;;;;7.90;1.13;;;;;;;27.09;57.80;100204.00;5025142;28;20030;-74
2023/08/25 11:51:26;;;;;;;8.35;1.30;;;;;;;27.07;57.30;100202.78;5010566;28;20033;-74
2023/08/25 11:54:11;;;;;;;7.18;1.25;;;;;;;27.02;59.29;100206.06;5005534;28;20038;-74
2023/08/25 11:56:57;;;;;;;5.22;0.90;;;;;;;27.04;58.53;100206.47;5009004;28;20033;-74
2023/08/25 11:59:45;;;;;;;3.03;0.80;;;;;;;27.01;59.21;100213.00;5024624;28;20401;-74
2023/08/25 12:02:31;;;;;;;3.58;0.90;;;;;;;26.95;58.95;100201.22;5024365;28;20112;-74
2023/08/25 12:05:17;;;;;;;1.73;0.52;;;;;;;26.91;59.59;100198.41;5024727;28;20413;-74
2023/08/25 12:08:03;;;;;;;1.95;0.50;;;;;;;26.93;58.49;100201.63;5024289;28;20030;-73
2023/08/25 12:10:48;;;;;;;2.65;0.82;;;;;;;27.00;57.29;100195.09;5010975;28;20064;-74
2023/08/25 12:13:35;;;;;;;5.07;0.82;;;;;;;27.12;56.97;100196.66;5040042;28;20044;-73
2023/08/25 12:16:42;;;;;;;2.08;0.50;;;;;;;27.25;53.92;100200.72;5024387;28;20090;-74
2023/08/25 12:19:27;;;;;;;4.13;0.73;;;;;;;27.40;52.28;100195.72;5021848;28;20127;-74
2023/08/25 12:22:15;;;;;;;2.67;0.95;;;;;;;27.52;53.01;100197.25;5036502;28;20437;-74
2023/08/25 12:25:01;;;;;;;4.13;0.57;;;;;;;27.58;53.08;100199.28;5005322;28;20061;-74
2023/08/25 12:27:48;;;;;;;3.22;0.52;;;;;;;27.70;54.30;100186.56;5036291;28;20038;-74
2023/08/25 12:30:34;;;;;;;2.08;0.63;;;;;;;27.78;55.13;100190.16;5020289;28;20046;-74
2023/08/25 12:33:20;;;;;;;3.88;0.85;;;;;;;27.87;51.78;100195.44;5023597;28;20474;-74
2023/08/25 12:36:06;;;;;;;2.80;0.63;;;;;;;27.89;50.54;100193.78;5015193;28;20117;-74
2023/08/25 12:38:52;;;;;;;3.08;0.70;;;;;;;27.82;51.50;100199.53;5003846;28;20444;-74
2023/08/25 12:41:38;;;;;;;6.15;0.85;;;;;;;27.81;52.22;100198.72;5023369;28;20477;-74
2023/08/25 12:44:24;;;;;;;4.22;0.80;;;;;;;27.81;53.78;100193.03;5004049;28;20513;-73
2023/08/25 12:47:09;;;;;;;4.25;0.80;;;;;;;27.79;53.48;100192.63;5022294;28;20125;-74
2023/08/25 12:49:55;;;;;;;2.33;0.70;;;;;;;27.83;50.75;100187.72;5023887;28;20041;-74
2023/08/25 12:52:41;;;;;;;2.40;0.45;;;;;;;27.85;49.72;100196.63;5023564;28;20033;-74